Terminal Aerodrome Forecast
Issued by NWS Newport/Morehead City, NC

Home | Current Version | Previous Version | Graphics & Text | Print | Product List | Glossary Off
Versions: 1 2 3 4 5 6 7 8 9 10 11 12 13 14 15 16 17 18 19 20 21 22

000
FTUS42 KMHX 200553
TAFEWN
TAF
KEWN 200553Z 2006/2106 18003KT 5SM BR SKC
      TEMPO 2006/2008 2SM BR SCT005
     FM200800 VRB02KT 2SM BR SCT005
      TEMPO 2008/2012 1/2SM FG BKN005
     FM201200 VRB05KT P6SM SCT050=

USA.gov is the U.S. government's official web portal to all federal, state and local government web resources and services.